Time;durP1;ratioP1;P1;durP2;ratioP2;P2;SDS_P1;SDS_P2;PMS_P1;PMS_P2;Temp;Humidity;BMP_temperature;BMP_pressure;BME280_temperature;BME280_humidity;BME280_pressure;Samples;Min_cycle;Max_cycle;Signal;HPM_P1;HPM_P2
2021/05/30 00:02:08;;;;;;;4.55;2.75;;;;;;;18.97;51.25;100940.78;146696;566;46020;-60
2021/05/30 00:04:39;;;;;;;11.63;2.95;;;;;;;18.96;50.99;100941.75;146692;603;46035;-60
2021/05/30 00:07:11;;;;;;;12.83;3.10;;;;;;;18.93;50.92;100949.91;146697;596;46020;-60
2021/05/30 00:09:41;;;;;;;;;;;;;;;18.89;51.07;100945.72;146699;974;46016;-60
2021/05/30 00:12:12;;;;;;;10.65;3.25;;;;;;;18.85;51.26;100944.16;146707;579;45022;-60
2021/05/30 00:14:44;;;;;;;7.00;2.67;;;;;;;18.83;51.50;100948.72;146693;602;46017;-60
2021/05/30 00:17:15;;;;;;;8.57;3.05;;;;;;;18.76;51.22;100951.72;146696;583;46020;-60
2021/05/30 00:19:47;;;;;;;4.03;3.00;;;;;;;18.69;51.34;100947.72;146692;629;46016;-60
2021/05/30 00:22:18;;;;;;;4.47;2.65;;;;;;;18.61;52.04;100942.00;146695;598;46020;-60
2021/05/30 00:24:49;;;;;;;12.37;2.97;;;;;;;18.50;51.82;100947.09;146695;619;47021;-60
2021/05/30 00:27:20;;;;;;;2.75;2.40;;;;;;;18.44;52.13;100940.31;146696;563;46020;-60
2021/05/30 00:29:53;;;;;;;8.00;4.03;;;;;;;18.41;52.13;100944.00;146694;581;46010;-60
2021/05/30 00:32:24;;;;;;;4.82;2.90;;;;;;;18.39;52.26;100942.37;146696;603;46020;-60
2021/05/30 00:34:55;;;;;;;6.65;2.67;;;;;;;18.34;52.02;100939.13;146693;582;46016;-59
2021/05/30 00:37:27;;;;;;;8.27;2.53;;;;;;;18.28;51.94;100937.66;146699;573;46009;-59
2021/05/30 00:39:58;;;;;;;6.05;2.62;;;;;;;18.23;51.22;100937.06;146692;616;47016;-60
2021/05/30 00:42:29;;;;;;;4.65;2.22;;;;;;;18.18;51.32;100934.69;146698;667;46008;-60
2021/05/30 00:45:00;;;;;;;3.40;2.15;;;;;;;18.18;51.32;100939.13;146694;593;46020;-60
2021/05/30 00:47:31;;;;;;;5.35;2.50;;;;;;;18.15;50.86;100937.53;146698;581;45020;-59
2021/05/30 00:50:03;;;;;;;6.82;2.20;;;;;;;18.14;50.95;100942.91;146696;623;46014;-60
2021/05/30 00:52:35;;;;;;;8.70;2.35;;;;;;;18.07;51.35;100947.69;146696;700;46021;-60
2021/05/30 00:55:06;;;;;;;;;;;;;;;18.01;51.54;100948.91;146697;982;46016;-60
2021/05/30 00:57:38;;;;;;;4.85;2.70;;;;;;;17.98;51.99;100940.25;146706;569;46020;-60
2021/05/30 01:00:13;;;;;;;3.47;2.60;;;;;;;17.96;52.20;100948.31;146694;611;46017;-59
2021/05/30 01:02:44;;;;;;;2.95;2.35;;;;;;;17.95;52.18;100943.94;146696;634;46020;-60
2021/05/30 01:05:16;;;;;;;4.68;2.45;;;;;;;17.95;51.95;100943.06;146692;556;46016;-60
2021/05/30 01:07:47;;;;;;;4.05;2.40;;;;;;;17.93;51.89;100940.50;146696;589;46032;-60
2021/05/30 01:10:34;;;;;;;6.30;2.40;;;;;;;17.88;52.50;100939.88;146695;566;46904;-59
2021/05/30 01:13:05;;;;;;;3.35;2.65;;;;;;;17.82;52.29;100943.72;146694;587;46020;-60
2021/05/30 01:15:36;;;;;;;7.28;2.58;;;;;;;17.75;52.35;100931.72;146692;586;46017;-59
2021/05/30 01:18:08;;;;;;;5.50;2.60;;;;;;;17.69;52.43;100938.22;146698;580;46010;-59
2021/05/30 01:20:39;;;;;;;;;;;;;;;17.66;53.05;100933.09;146698;983;46017;-60
2021/05/30 01:23:15;;;;;;;4.85;2.60;;;;;;;17.59;52.82;100929.03;146708;585;46021;-60
2021/05/30 01:25:47;;;;;;;2.80;2.50;;;;;;;17.56;52.92;100931.84;146691;581;46016;-59
2021/05/30 01:28:19;;;;;;;5.60;3.20;;;;;;;17.52;53.16;100922.34;146697;669;46020;-60
2021/05/30 01:30:51;;;;;;;7.05;2.53;;;;;;;17.49;53.20;100930.47;146696;595;46014;-60
2021/05/30 01:33:22;;;;;;;6.00;2.72;;;;;;;17.49;53.37;100927.81;146697;581;46020;-60
2021/05/30 01:35:53;;;;;;;6.30;2.28;;;;;;;17.49;53.20;100925.16;146695;564;46015;-60
2021/05/30 01:38:24;;;;;;;5.50;2.80;;;;;;;17.45;52.70;100929.78;146695;623;46020;-60
2021/05/30 01:40:56;;;;;;;4.93;2.80;;;;;;;17.37;52.92;100924.00;146692;607;46016;-60
2021/05/30 01:43:27;;;;;;;4.20;2.55;;;;;;;17.27;52.57;100923.66;146697;604;46021;-60
2021/05/30 01:45:59;;;;;;;10.77;2.62;;;;;;;17.25;53.18;100925.53;146692;569;48021;-59
2021/05/30 01:48:30;;;;;;;2.70;2.50;;;;;;;17.25;53.43;100928.19;146696;644;46020;-60
2021/05/30 01:51:01;;;;;;;3.67;2.78;;;;;;;17.23;52.52;100933.56;146692;600;46015;-60
2021/05/30 01:53:37;;;;;;;4.17;2.00;;;;;;;17.25;52.21;100925.53;146696;594;46020;-60
2021/05/30 01:58:48;;;;;;;6.18;3.00;;;;;;;17.30;52.64;100920.81;146697;613;46020;-60
2021/05/30 02:01:20;;;;;;;5.87;2.37;;;;;;;17.32;52.99;100929.56;146694;658;46016;-60
2021/05/30 02:03:51;;;;;;;4.20;2.50;;;;;;;17.30;52.58;100925.28;146697;668;46020;-61
2021/05/30 02:06:23;;;;;;;4.95;2.42;;;;;;;17.29;52.73;100927.09;146691;596;47011;-59
2021/05/30 02:08:55;;;;;;;4.07;2.22;;;;;;;17.25;51.97;100929.03;146696;599;46028;-60
2021/05/30 02:11:27;;;;;;;5.75;2.42;;;;;;;17.23;52.67;100935.34;146694;580;46016;-60
2021/05/30 02:14:03;;;;;;;5.72;2.50;;;;;;;17.20;52.62;100931.06;146698;579;46020;-60
2021/05/30 02:16:37;;;;;;;5.20;2.58;;;;;;;17.15;53.08;100929.59;146696;692;47010;-60
2021/05/30 02:19:08;;;;;;;6.68;2.28;;;;;;;17.11;52.78;100936.00;146700;601;46025;-60
2021/05/30 02:21:45;;;;;;;8.20;2.87;;;;;;;17.07;52.45;100930.88;146694;573;46017;-60
2021/05/30 02:24:19;;;;;;;8.38;2.55;;;;;;;17.01;52.41;100931.16;146697;563;46012;-60
2021/05/30 02:26:51;;;;;;;5.20;2.30;;;;;;;16.98;53.06;100933.13;146696;579;46016;-61
2021/05/30 02:29:40;;;;;;;6.70;2.35;;;;;;;16.98;53.46;100933.97;146695;627;46021;-60
2021/05/30 02:32:13;;;;;;;4.15;2.47;;;;;;;16.98;52.98;100941.94;146694;604;46016;-60
2021/05/30 02:34:45;;;;;;;3.70;2.30;;;;;;;17.00;52.43;100944.50;146698;572;46020;-60
2021/05/30 02:37:18;;;;;;;3.90;2.45;;;;;;;17.00;52.94;100940.06;146693;627;48021;-60
2021/05/30 02:39:49;;;;;;;2.85;2.30;;;;;;;17.00;52.49;100940.06;146698;577;46020;-60
2021/05/30 02:42:20;;;;;;;5.87;2.50;;;;;;;17.00;53.35;100950.66;146695;569;46010;-60
2021/05/30 02:44:51;;;;;;;4.22;2.60;;;;;;;16.97;53.35;100950.81;146697;622;46021;-60
2021/05/30 02:47:23;;;;;;;6.65;2.47;;;;;;;16.95;52.85;100950.06;146695;569;46016;-60
2021/05/30 02:49:54;;;;;;;3.87;2.93;;;;;;;16.94;52.38;100951.00;146698;591;46029;-60
2021/05/30 02:52:26;;;;;;;3.42;2.12;;;;;;;16.94;52.20;100948.34;146692;569;46017;-59
2021/05/30 02:54:57;;;;;;;4.47;2.25;;;;;;;16.93;52.55;100949.25;146695;579;47008;-59
2021/05/30 02:57:28;;;;;;;4.20;2.40;;;;;;;16.95;52.60;100955.37;146697;687;46015;-60
2021/05/30 02:59:59;;;;;;;4.53;2.60;;;;;;;16.96;52.68;100948.25;146697;596;46021;-60
2021/05/30 03:02:30;;;;;;;4.85;2.30;;;;;;;16.97;52.85;100953.47;146696;757;46010;-60
2021/05/30 03:05:01;;;;;;;7.05;2.20;;;;;;;16.97;52.86;100955.28;146695;593;46020;-60
2021/05/30 03:07:32;;;;;;;5.13;2.33;;;;;;;16.98;52.57;100957.00;146695;682;46017;-59
2021/05/30 03:10:04;;;;;;;6.82;2.35;;;;;;;16.99;53.37;100953.41;146698;565;46020;-60
2021/05/30 03:12:34;;;;;;;;;;;;;;;16.98;52.99;100952.56;146698;981;46016;-60
2021/05/30 03:15:07;;;;;;;5.82;2.72;;;;;;;16.93;52.76;100949.25;146711;587;46018;-59
2021/05/30 03:17:38;;;;;;;6.90;2.95;;;;;;;16.87;53.73;100950.41;146696;628;46018;-60
2021/05/30 03:20:11;;;;;;;9.45;2.75;;;;;;;16.88;53.80;100961.88;146695;575;46020;-60
2021/05/30 03:22:42;;;;;;;8.57;3.08;;;;;;;16.87;53.65;100955.72;146695;644;46016;-61
2021/05/30 03:25:14;;;;;;;8.30;3.08;;;;;;;16.86;54.29;100951.34;146697;592;46031;-60
2021/05/30 03:27:45;;;;;;;5.28;2.87;;;;;;;16.85;54.24;100956.72;146697;592;46015;-60
2021/05/30 03:30:17;;;;;;;10.32;2.95;;;;;;;16.83;54.36;100951.50;146698;597;46021;-59
2021/05/30 03:32:49;;;;;;;8.02;2.80;;;;;;;16.83;55.02;100961.25;146694;587;46016;-60
2021/05/30 03:35:19;;;;;;;9.60;3.20;;;;;;;16.85;54.79;100954.06;146698;580;46021;-60
2021/05/30 03:37:51;;;;;;;7.47;2.87;;;;;;;16.87;54.90;100961.00;146692;581;46014;-60
2021/05/30 03:40:36;;;;;;;5.32;2.72;;;;;;;16.90;55.06;100962.69;146699;598;46020;-60
2021/05/30 03:43:07;;;;;;;7.43;2.58;;;;;;;16.95;55.14;100967.75;146695;576;46016;-60
2021/05/30 03:45:38;;;;;;;;;;;;;;;16.99;54.97;100969.31;146703;979;45023;-59
2021/05/30 03:48:10;;;;;;;6.82;2.22;;;;;;;17.06;54.14;100976.03;146704;608;46016;-60
2021/05/30 03:50:41;;;;;;;10.45;2.65;;;;;;;17.16;54.57;100968.47;146699;623;46021;-60
2021/05/30 03:53:12;;;;;;;3.35;2.50;;;;;;;17.28;55.07;100972.25;146698;573;46014;-60
2021/05/30 03:55:43;;;;;;;6.30;3.20;;;;;;;17.39;54.85;100975.22;146697;623;46020;-60
2021/05/30 03:58:15;;;;;;;7.15;2.58;;;;;;;17.16;55.76;100921.56;146695;639;46017;-60
2021/05/30 04:00:46;;;;;;;7.15;2.58;;;;;;;17.57;55.42;100982.22;146699;621;46008;-60
2021/05/30 04:03:20;;;;;;;5.70;2.67;;;;;;;17.67;54.81;100977.25;146697;624;46016;-60
2021/05/30 04:05:52;;;;;;;6.95;2.70;;;;;;;17.75;55.00;100980.34;146700;681;45021;-60
2021/05/30 04:08:23;;;;;;;7.60;2.90;;;;;;;17.86;54.97;100986.91;146696;656;46016;-60
2021/05/30 04:10:54;;;;;;;12.27;2.80;;;;;;;17.91;55.58;100979.56;146697;689;46026;-60
2021/05/30 04:13:25;;;;;;;6.20;3.00;;;;;;;17.96;55.65;100980.19;146695;566;46017;-60
2021/05/30 04:15:56;;;;;;;8.13;2.80;;;;;;;18.01;55.69;100979.94;146698;603;46020;-60
2021/05/30 04:18:27;;;;;;;6.90;2.83;;;;;;;18.05;55.38;100984.97;146695;580;46016;-60
2021/05/30 04:20:58;;;;;;;5.85;2.80;;;;;;;18.16;56.34;100986.19;146701;682;45022;-60
2021/05/30 04:23:29;;;;;;;5.43;2.97;;;;;;;18.25;56.02;100988.34;146696;587;46016;-60
2021/05/30 04:26:00;;;;;;;7.82;2.83;;;;;;;18.33;56.84;100988.78;146698;649;46020;-60
2021/05/30 04:28:35;;;;;;;6.37;2.87;;;;;;;18.41;56.34;100981.22;146698;586;46016;-60
2021/05/30 04:31:06;;;;;;;4.95;2.97;;;;;;;18.54;56.85;100988.50;146695;601;46020;-60
2021/05/30 04:33:38;;;;;;;3.95;2.67;;;;;;;18.65;57.21;100988.72;146695;563;46016;-59
2021/05/30 04:36:09;;;;;;;4.68;2.78;;;;;;;18.75;57.38;100992.59;146698;665;46021;-60
2021/05/30 04:38:40;;;;;;;5.40;2.97;;;;;;;18.60;57.42;100950.91;146696;578;46010;-60
2021/05/30 04:41:10;;;;;;;4.37;2.83;;;;;;;19.01;57.33;100986.72;146698;596;46020;-60
2021/05/30 04:43:42;;;;;;;4.43;3.12;;;;;;;19.14;56.93;100986.84;146697;565;46010;-60
2021/05/30 04:46:13;;;;;;;5.70;2.87;;;;;;;19.25;56.22;100990.56;146699;611;46020;-60
2021/05/30 04:48:44;;;;;;;7.25;2.72;;;;;;;19.36;55.47;100995.25;146694;619;46016;-61
2021/05/30 04:51:15;;;;;;;6.12;3.10;;;;;;;19.48;55.46;100995.44;146696;608;46013;-59
2021/05/30 04:53:47;;;;;;;5.73;3.23;;;;;;;19.58;55.06;100994.78;146697;679;46029;-60
2021/05/30 04:56:21;;;;;;;7.05;2.83;;;;;;;19.69;54.91;100994.13;146697;620;46020;-60
2021/05/30 04:58:52;;;;;;;5.85;2.97;;;;;;;19.81;54.68;100997.03;146697;577;46029;-60
2021/05/30 05:01:23;;;;;;;6.62;2.95;;;;;;;19.90;54.82;100993.78;146697;587;46020;-60
2021/05/30 05:03:55;;;;;;;9.18;3.17;;;;;;;20.00;54.30;101000.25;146690;570;46016;-60
2021/05/30 05:06:26;;;;;;;7.90;3.60;;;;;;;20.08;54.26;100999.75;146696;615;46021;-61
2021/05/30 05:08:57;;;;;;;16.05;3.70;;;;;;;20.19;54.07;101001.72;146697;621;46014;-60
2021/05/30 05:11:28;;;;;;;6.40;3.15;;;;;;;20.27;54.02;101004.75;146698;577;46020;-60
2021/05/30 05:14:00;;;;;;;10.05;3.45;;;;;;;20.35;53.96;100999.78;146695;580;46017;-60
2021/05/30 05:16:31;;;;;;;6.03;3.22;;;;;;;20.43;53.67;101002.81;146699;601;46017;-60
2021/05/30 05:19:03;;;;;;;7.68;3.25;;;;;;;20.50;53.76;101011.25;146698;577;45903;-60
2021/05/30 05:21:34;;;;;;;13.10;3.33;;;;;;;20.58;53.37;101011.62;146698;570;46020;-60
2021/05/30 05:24:06;;;;;;;4.97;3.30;;;;;;;20.64;52.28;101021.06;146695;657;46016;-60
2021/05/30 05:26:37;;;;;;;7.12;3.25;;;;;;;20.68;52.95;101003.03;146696;645;46020;-60
2021/05/30 05:29:08;;;;;;;5.05;3.30;;;;;;;20.72;54.10;101016.09;146694;657;46016;-60
2021/05/30 05:31:40;;;;;;;8.07;3.08;;;;;;;20.78;54.08;101021.03;146698;739;46020;-60
2021/05/30 05:34:11;;;;;;;4.85;2.97;;;;;;;20.78;53.56;101026.34;146698;640;46010;-60
2021/05/30 05:36:42;;;;;;;7.85;3.17;;;;;;;20.84;53.30;101029.59;146698;663;46021;-60
2021/05/30 05:39:13;;;;;;;5.60;3.42;;;;;;;20.88;53.51;101025.75;146696;594;46016;-60
2021/05/30 05:41:45;;;;;;;8.13;3.30;;;;;;;20.91;53.59;101033.53;146699;682;46026;-60
2021/05/30 05:44:16;;;;;;;5.35;2.95;;;;;;;20.94;53.45;101036.87;146694;569;46017;-59
2021/05/30 05:46:47;;;;;;;3.80;3.10;;;;;;;21.00;53.02;101037.44;146699;620;46020;-60
2021/05/30 05:49:18;;;;;;;12.73;3.50;;;;;;;21.04;54.02;101042.44;146697;634;46015;-60
2021/05/30 05:51:49;;;;;;;5.70;2.92;;;;;;;21.09;54.07;101040.34;146698;633;46020;-60
2021/05/30 05:54:20;;;;;;;10.23;3.33;;;;;;;21.16;53.65;101045.25;146694;584;46016;-60
2021/05/30 05:56:51;;;;;;;9.05;3.20;;;;;;;21.21;53.09;101041.31;146697;621;46021;-61
2021/05/30 05:59:22;;;;;;;5.40;3.22;;;;;;;21.27;52.50;101046.25;146697;652;46016;-60
2021/05/30 06:01:53;;;;;;;5.27;3.30;;;;;;;21.32;53.19;101042.41;146698;582;47008;-60
2021/05/30 06:04:25;;;;;;;6.60;3.70;;;;;;;21.33;52.94;101052.12;146695;566;46017;-60
2021/05/30 06:06:56;;;;;;;8.27;3.47;;;;;;;21.36;53.65;101047.41;146699;585;46020;-60
2021/05/30 06:09:27;;;;;;;4.72;2.90;;;;;;;21.37;53.40;101045.62;146695;585;46016;-60
2021/05/30 06:12:02;;;;;;;6.53;3.40;;;;;;;21.40;53.63;101046.25;146700;570;46008;-60
2021/05/30 06:14:35;;;;;;;9.55;3.15;;;;;;;21.43;53.54;101046.06;146697;641;46014;-60
2021/05/30 06:17:07;;;;;;;10.00;3.55;;;;;;;21.47;53.33;101047.56;146697;572;46020;-60
2021/05/30 06:19:39;;;;;;;6.87;3.30;;;;;;;21.51;53.66;101042.84;146697;586;46014;-60
2021/05/30 06:22:10;;;;;;;5.03;3.30;;;;;;;21.50;53.13;101045.62;146700;583;46020;-60
2021/05/30 06:24:41;;;;;;;7.37;3.25;;;;;;;21.48;53.31;101046.56;146696;618;46016;-60
2021/05/30 06:27:12;;;;;;;5.75;3.17;;;;;;;21.48;52.99;101051.91;146698;612;46024;-60
2021/05/30 06:29:44;;;;;;;8.30;3.35;;;;;;;21.52;53.55;101044.56;146694;572;48018;-60
2021/05/30 06:32:15;;;;;;;5.00;3.00;;;;;;;21.54;52.30;101047.16;146699;563;46020;-60
2021/05/30 06:34:46;;;;;;;10.73;3.42;;;;;;;21.56;52.44;101050.59;146697;636;46014;-60
2021/05/30 06:37:17;;;;;;;15.70;3.30;;;;;;;21.60;51.95;101057.44;146698;642;46020;-60
2021/05/30 06:39:48;;;;;;;9.50;3.33;;;;;;;21.63;51.96;101055.38;146697;654;46014;-60
2021/05/30 06:42:19;;;;;;;8.65;3.58;;;;;;;21.69;52.13;101056.78;146698;617;46021;-60
2021/05/30 06:44:51;;;;;;;7.78;3.12;;;;;;;21.74;52.86;101059.97;146696;653;47010;-60
2021/05/30 06:47:22;;;;;;;7.20;3.60;;;;;;;21.75;52.08;101055.50;146697;632;46020;-60
2021/05/30 06:49:53;;;;;;;11.20;3.58;;;;;;;21.76;51.17;101065.22;146695;573;47018;-60
2021/05/30 06:52:24;;;;;;;5.68;2.85;;;;;;;21.76;50.73;101057.19;146698;727;46020;-60
2021/05/30 06:54:56;;;;;;;6.25;2.95;;;;;;;21.79;51.33;101051.66;146698;583;46014;-60
2021/05/30 06:57:27;;;;;;;5.72;2.78;;;;;;;21.82;50.80;101058.62;146699;566;46021;-60
2021/05/30 06:59:58;;;;;;;5.80;3.00;;;;;;;21.85;50.45;101045.88;146692;570;46016;-60
2021/05/30 07:02:29;;;;;;;6.68;2.80;;;;;;;21.86;50.33;101039.56;146699;563;46008;-60
2021/05/30 07:05:00;;;;;;;;;;;;;;;21.90;50.60;101042.91;146701;965;46016;-60
2021/05/30 07:07:31;;;;;;;9.43;2.92;;;;;;;21.96;51.02;101045.12;146703;569;46020;-60
2021/05/30 07:10:04;;;;;;;7.95;3.17;;;;;;;21.99;49.77;101034.19;146697;587;46012;-60
2021/05/30 07:12:35;;;;;;;6.53;2.65;;;;;;;22.04;49.96;101037.41;146700;608;46030;-60
2021/05/30 07:15:08;;;;;;;6.22;3.28;;;;;;;22.14;50.63;101033.13;146697;653;46014;-60
2021/05/30 07:17:39;;;;;;;5.72;2.70;;;;;;;22.20;49.98;101034.50;146700;601;46010;-60
2021/05/30 07:20:11;;;;;;;5.97;3.28;;;;;;;22.19;50.51;101035.44;146696;583;46012;-60
2021/05/30 07:22:42;;;;;;;4.10;2.83;;;;;;;22.16;50.42;101024.97;146699;581;46010;-60
2021/05/30 07:25:13;;;;;;;6.15;3.30;;;;;;;22.17;49.92;101033.84;146697;612;46012;-60
2021/05/30 07:27:44;;;;;;;;;;;;;;;22.16;50.10;101027.66;146704;978;46010;-60
2021/05/30 07:30:16;;;;;;;3.78;2.83;;;;;;;22.20;50.04;101030.94;146704;629;46016;-60
2021/05/30 07:32:47;;;;;;;6.15;3.40;;;;;;;22.20;50.64;101023.81;146694;590;46020;-60
2021/05/30 07:35:18;;;;;;;5.57;3.33;;;;;;;22.22;50.43;101037.06;146696;579;46017;-60
2021/05/30 07:37:50;;;;;;;6.40;3.20;;;;;;;22.24;50.67;101032.44;146698;627;46020;-60
2021/05/30 07:40:21;;;;;;;10.40;3.37;;;;;;;22.25;50.98;101031.47;146696;571;46016;-60
2021/05/30 07:42:52;;;;;;;5.57;3.30;;;;;;;22.25;51.40;101031.47;146698;564;46021;-60
2021/05/30 07:45:24;;;;;;;8.90;3.00;;;;;;;22.24;51.10;101027.97;146697;596;46014;-56
2021/05/30 07:47:56;;;;;;;12.60;3.37;;;;;;;22.18;50.79;101028.38;146698;565;46020;-58
2021/05/30 07:50:28;;;;;;;6.78;3.08;;;;;;;22.15;51.33;101034.81;146695;592;46016;-57
2021/05/30 07:52:59;;;;;;;4.97;3.30;;;;;;;22.11;52.18;101038.66;146699;604;46020;-63
2021/05/30 07:55:30;;;;;;;;;;;;;;;22.06;52.31;101032.81;146699;977;46016;-65
2021/05/30 07:58:01;;;;;;;6.32;3.62;;;;;;;22.03;53.00;101038.38;146703;576;46010;-64
2021/05/30 08:00:32;;;;;;;7.87;3.25;;;;;;;22.01;54.24;101042.09;146696;585;46016;-59
2021/05/30 08:03:04;;;;;;;10.05;3.58;;;;;;;21.97;54.38;101041.50;146697;609;46021;-66
2021/05/30 08:05:36;;;;;;;10.20;3.55;;;;;;;21.93;54.40;101040.00;146694;581;46016;-67
2021/05/30 08:08:07;;;;;;;;;;;;;;;21.92;54.10;101043.63;146702;979;46020;-63
2021/05/30 08:10:38;;;;;;;6.32;3.97;;;;;;;21.92;55.24;101038.28;146698;591;46016;-57
2021/05/30 08:13:09;;;;;;;23.15;4.12;;;;;;;21.91;54.75;101036.56;146698;603;46020;-69
2021/05/30 08:15:41;;;;;;;4.78;4.03;;;;;;;21.93;54.82;101042.66;146696;565;46010;-70
2021/05/30 08:18:12;;;;;;;8.77;3.53;;;;;;;21.93;54.37;101043.50;146694;585;46030;-67
2021/05/30 08:20:43;;;;;;;9.43;3.58;;;;;;;21.93;53.90;101038.16;146696;571;46010;-68
2021/05/30 08:23:14;;;;;;;10.85;3.30;;;;;;;21.96;54.10;101037.09;146694;619;46020;-77
2021/05/30 08:25:45;;;;;;;;;;;;;;;22.00;54.08;101035.91;146698;982;46017;-74
2021/05/30 08:28:16;;;;;;;9.13;2.87;;;;;;;22.05;55.09;101035.56;146705;597;46020;-70
2021/05/30 08:30:47;;;;;;;6.93;3.90;;;;;;;22.13;53.24;101041.25;146691;622;46018;-64
2021/05/30 08:33:18;;;;;;;7.28;3.67;;;;;;;22.18;52.15;101038.25;146697;564;46021;-65
2021/05/30 08:35:50;;;;;;;10.18;3.33;;;;;;;22.24;51.87;101032.44;146693;574;46016;-65
2021/05/30 08:38:22;;;;;;;16.37;3.20;;;;;;;22.27;52.12;101034.91;146697;564;46020;-77
2021/05/30 08:40:53;;;;;;;8.23;3.25;;;;;;;22.31;53.08;101033.72;146694;613;47012;-62
2021/05/30 08:43:25;;;;;;;6.60;3.15;;;;;;;22.34;53.11;101036.19;146697;586;46020;-65
2021/05/30 08:45:56;;;;;;;7.20;3.20;;;;;;;22.38;52.19;101039.50;146694;572;46904;-62
2021/05/30 08:48:27;;;;;;;19.70;4.70;;;;;;;22.37;52.91;101033.28;146695;586;46028;-63
2021/05/30 08:51:05;;;;;;;6.18;3.03;;;;;;;22.38;52.50;101031.50;146694;622;46016;-73
2021/05/30 08:53:42;;;;;;;6.25;3.67;;;;;;;22.34;52.56;101030.84;146694;569;46020;-72
2021/05/30 08:56:13;;;;;;;7.30;3.10;;;;;;;22.29;51.96;101025.81;146694;576;46905;-69
2021/05/30 08:58:50;;;;;;;5.80;3.05;;;;;;;22.26;52.34;101027.84;146696;576;46020;-70
2021/05/30 09:01:26;;;;;;;10.27;3.50;;;;;;;22.20;52.27;101029.16;146691;563;47012;-82
2021/05/30 09:04:09;;;;;;;6.57;2.92;;;;;;;22.14;52.50;101022.44;146697;619;46021;-69
2021/05/30 09:06:43;;;;;;;7.57;5.32;;;;;;;22.11;52.48;101033.31;146695;580;46016;-81
2021/05/30 09:09:15;;;;;;;7.50;5.35;;;;;;;22.06;53.81;101035.50;146697;586;46010;-73
2021/05/30 09:11:54;;;;;;;5.50;3.40;;;;;;;22.05;54.77;101038.25;146696;566;46012;-73
2021/05/30 09:14:31;;;;;;;5.80;3.47;;;;;;;22.02;54.58;101036.69;146693;599;47010;-75
2021/05/30 09:17:07;;;;;;;5.72;3.75;;;;;;;22.00;55.23;101040.41;146695;578;46016;-78
2021/05/30 09:19:48;;;;;;;3.30;2.90;;;;;;;21.97;55.09;101042.31;146695;594;46021;-72
2021/05/30 09:22:48;;;;;;;14.75;3.70;;;;;;;21.96;55.36;101042.44;146691;563;46016;-78
2021/05/30 09:25:23;;;;;;;7.82;3.50;;;;;;;21.95;55.62;101048.75;146696;580;46020;-75
2021/05/30 09:28:01;;;;;;;6.62;3.87;;;;;;;21.95;55.63;101046.06;146696;584;46012;-72
2021/05/30 09:30:42;;;;;;;7.03;3.72;;;;;;;21.95;55.61;101049.63;146698;594;46020;-71
2021/05/30 09:33:21;;;;;;;4.43;3.53;;;;;;;21.95;55.83;101051.41;146693;564;46016;-72
2021/05/30 09:35:57;;;;;;;5.40;2.92;;;;;;;21.94;56.06;101047.06;146697;585;46020;-71
2021/05/30 09:38:39;;;;;;;10.95;4.90;;;;;;;21.95;56.18;101048.75;146695;602;46012;-78
2021/05/30 09:41:13;;;;;;;11.85;6.32;;;;;;;21.96;56.65;101045.12;146699;637;46011;-64
2021/05/30 09:43:51;;;;;;;8.48;5.75;;;;;;;21.96;56.11;101042.44;146694;575;46016;-68
2021/05/30 09:46:23;;;;;;;18.10;5.93;;;;;;;21.98;56.09;101044.03;146696;579;46010;-64
2021/05/30 09:48:59;;;;;;;9.02;3.80;;;;;;;22.01;56.22;101040.31;146695;595;46014;-72
2021/05/30 09:51:40;;;;;;;6.22;3.90;;;;;;;22.03;57.20;101034.84;146697;589;46010;-64
2021/05/30 09:54:18;;;;;;;;;;;;;;;22.06;57.09;101042.62;146698;980;46016;-64
2021/05/30 09:56:52;;;;;;;4.40;2.87;;;;;;;22.09;57.27;101042.41;146707;571;46021;-68
2021/05/30 09:59:24;;;;;;;6.43;3.40;;;;;;;22.13;55.68;101047.44;146694;604;46010;-66
2021/05/30 10:02:06;;;;;;;15.55;4.03;;;;;;;22.18;55.15;101040.91;146697;570;46020;-66
2021/05/30 10:04:38;;;;;;;8.80;3.70;;;;;;;22.21;54.75;101038.88;146693;590;46031;-66
2021/05/30 10:07:08;;;;;;;;;;;;;;;22.26;54.05;101036.72;146698;982;46020;-67
2021/05/30 10:09:39;;;;;;;6.20;4.30;;;;;;;22.31;54.13;101033.72;146707;577;46015;-66
2021/05/30 10:12:11;;;;;;;6.47;4.43;;;;;;;22.37;53.87;101030.63;146698;563;46020;-66
2021/05/30 10:14:43;;;;;;;7.93;4.75;;;;;;;22.42;53.23;101033.81;146694;599;46012;-66
2021/05/30 10:17:16;;;;;;;7.40;3.67;;;;;;;22.47;53.04;101031.66;146692;593;47010;-66
2021/05/30 10:19:48;;;;;;;8.30;3.35;;;;;;;22.54;52.42;101028.53;146693;582;46016;-67
2021/05/30 10:22:19;;;;;;;23.38;3.53;;;;;;;22.58;51.90;101027.34;146693;680;46020;-66
2021/05/30 10:24:50;;;;;;;;;;;;;;;22.63;51.49;101028.69;146700;971;46012;-66
2021/05/30 10:27:30;;;;;;;9.10;3.53;;;;;;;22.69;51.01;101026.53;146710;594;46008;-66
2021/05/30 10:30:30;;;;;;;10.25;3.90;;;;;;;22.72;51.02;101037.88;146693;629;46016;-66
2021/05/30 10:33:13;;;;;;;6.40;4.10;;;;;;;22.76;51.57;101034.00;146695;618;46008;-65
2021/05/30 10:35:48;;;;;;;5.57;3.33;;;;;;;22.78;50.71;101026.69;146692;610;46016;-66
2021/05/30 10:38:42;;;;;;;7.80;3.28;;;;;;;22.84;50.82;101029.91;146696;569;46020;-65
2021/05/30 10:41:23;;;;;;;9.00;4.37;;;;;;;22.91;51.29;101028.47;146693;589;46016;-66
2021/05/30 10:43:55;;;;;;;11.30;3.78;;;;;;;22.97;51.05;101025.34;146697;636;46020;-66
2021/05/30 10:46:27;;;;;;;9.82;5.35;;;;;;;23.05;51.64;101033.63;146693;619;46016;-66
2021/05/30 10:49:08;;;;;;;12.55;6.80;;;;;;;23.16;52.22;101024.81;146698;622;46008;-65
2021/05/30 10:51:49;;;;;;;8.32;4.85;;;;;;;23.25;51.27;101039.31;146694;604;46010;-66
2021/05/30 10:54:20;;;;;;;6.82;3.87;;;;;;;23.28;51.46;101029.25;146696;611;46021;-66
2021/05/30 10:56:58;;;;;;;15.02;3.92;;;;;;;23.36;51.64;101033.13;146694;663;46902;-66
2021/05/30 10:59:29;;;;;;;5.32;3.60;;;;;;;23.41;50.23;101033.66;146694;575;46020;-67
2021/05/30 11:02:04;;;;;;;4.90;3.37;;;;;;;23.44;49.96;101026.25;146695;583;46014;-66
2021/05/30 11:04:36;;;;;;;8.93;4.05;;;;;;;23.50;49.75;101027.59;146696;592;46020;-65
2021/05/30 11:07:47;;;;;;;4.45;3.53;;;;;;;23.60;49.94;101033.91;146694;647;46016;-67
2021/05/30 11:10:18;;;;;;;6.00;3.30;;;;;;;23.67;49.85;101028.94;146699;581;46008;-65
2021/05/30 11:12:52;;;;;;;3.12;2.75;;;;;;;23.75;49.40;101025.66;146695;592;46010;-66
2021/05/30 11:15:25;;;;;;;5.75;3.03;;;;;;;23.81;49.20;101028.72;146696;615;46020;-66
2021/05/30 11:18:01;;;;;;;9.27;3.28;;;;;;;23.91;48.44;101028.03;146695;587;46011;-65
2021/05/30 11:20:43;;;;;;;6.30;2.58;;;;;;;24.01;48.42;101025.44;146695;565;46020;-67
2021/05/30 11:23:22;;;;;;;;;;;;;;;24.05;47.38;101027.75;146700;960;46016;-66
2021/05/30 11:25:56;;;;;;;4.78;2.72;;;;;;;24.12;47.18;101025.44;146702;564;46010;-67
2021/05/30 11:28:30;;;;;;;5.22;2.55;;;;;;;24.17;47.66;101013.34;146691;601;48018;-66
2021/05/30 11:31:19;;;;;;;4.37;2.70;;;;;;;24.22;46.91;101010.31;146696;578;46020;-66
2021/05/30 11:34:07;;;;;;;4.10;2.90;;;;;;;24.24;46.67;101015.56;146692;621;46017;-65
2021/05/30 11:36:39;;;;;;;4.70;2.90;;;;;;;24.24;46.93;101015.56;146697;611;46010;-66
2021/05/30 11:39:18;;;;;;;4.32;2.75;;;;;;;24.24;46.39;101011.03;146691;564;46016;-67
2021/05/30 11:41:57;;;;;;;6.20;3.03;;;;;;;24.17;46.33;101015.19;146697;572;46021;-66
2021/05/30 11:44:28;;;;;;;5.35;2.78;;;;;;;24.16;47.24;101011.62;146693;626;46016;-67
2021/05/30 11:47:05;;;;;;;4.27;2.50;;;;;;;24.12;47.18;101014.69;146696;601;46021;-66
2021/05/30 11:49:39;;;;;;;6.95;2.87;;;;;;;24.14;47.89;101013.59;146693;617;46016;-66
2021/05/30 11:52:20;;;;;;;5.78;2.65;;;;;;;24.17;48.12;101010.66;146694;585;46020;-66
2021/05/30 11:54:54;;;;;;;14.82;3.25;;;;;;;24.17;49.29;101005.31;146693;575;46017;-63
2021/05/30 11:57:26;;;;;;;8.95;3.47;;;;;;;24.18;50.13;101011.53;146698;589;45021;-66